Terminal Aerodrome Forecast
Issued by NWS Hastings, NE

Home | Current Version | Previous Version | Text Only | Print | Product List | Glossary On
Versions: 1 2 3 4 5 6 7 8 9 10 11 12
000
FTUS43 KGID 270533
TAFGRI
TAF
KGRI 270533Z 2706/2806 VRB06KT P6SM OVC250
     FM270900 VRB06KT P6SM VCSH SCT070 OVC200
     FM271200 VRB06KT P6SM -SHRA BKN070 OVC120 WS015/35055KT
     FM271700 36010KT P6SM VCTS BKN030CB OVC050
     FM280000 35010KT P6SM BKN050
     FM280500 VRB06KT P6SM FEW250=

USA.gov is the U.S. government's official web portal to all federal, state and local government web resources and services.